Londonderry, New Hampshire
Current Conditions -  °F | °C
As of 2:53 AM on Saturday 20 Dec 2014 (Local Time) from KMHT Reporting Station
Clear Clear  
Wind Chill: 16°   Ceiling: Unl
Heat Index: 25°   Visibility: 10mi
Dew Point: 18°   Wind: 8mph
Humidity: 75%   Direction: 360°N
Pressure: 30.19"   Gusts: NA
Location:  42.87°N, 71.37°W
Report Text: KMHT 200753Z 36007KT 10SM CLR M04/M08 A3019 RMK AO2 SLP240 T10391078
Loading
Personal Weather Stations






























Interactive Weather Map New forecast layout! Learn more

10-Day Weather Forecast

Advertisements
Track Severe Weather on mobile